Latest Weather Observations for Temora

IDN60801

Issued at 12:03 pm EST Thursday 28 May 2015 (issued every 30 minutes, with the page automatically refreshed every 10 minutes)

About weather observations | Map of weather stations | Latest weather observations for NSW | Other Formats
Station Details ID: 073151 Name: TEMORA AIRPORT Lat: -34.43 Lon: 147.51 Height: 280.5 m
Data from the previous 72 hours. | See also: Recent months at Temora
Date/Time
EST
Temp
°C
App
Temp
°C
Dew
Point
Rel
Hum
%
Delta-T
°C
Wind Press
QNH
hPa
Press
MSL
hPa
Rain
since 9 am
mm
Dir
 
Spd
km/h
Gust
km/h
Spd
kts
Gust
kts
28/12:00pm 17.5 14.7 11.3 67 3.4 N 17 20 9 11 1022.4 1022.5 0.0
28/11:30am 17.6 15.7 11.8 69 3.2 N 13 20 7 11 1022.9 1023.0 0.0
28/11:00am 16.1 13.3 11.3 73 2.6 N 17 20 9 11 1023.3 1023.4 0.0
28/10:30am 15.1 12.9 10.7 75 2.4 NNE 13 19 7 10 1023.7 1023.8 0.0
28/10:00am 13.9 11.5 9.9 77 2.1 N 13 17 7 9 1024.1 1024.2 0.0
28/09:30am 12.5 10.8 9.7 83 1.4 NNE 9 13 5 7 1024.0 1024.1 0.0
28/09:00am 11.7 9.8 8.9 83 1.4 NNE 9 11 5 6 1024.1 1024.2 0.0
28/08:30am 11.0 8.9 8.4 84 1.3 ENE 9 11 5 6 1023.5 1023.6 0.0
28/08:00am 10.0 9.3 8.6 91 0.7 NE 2 7 1 4 1023.4 1023.5 0.0
28/07:30am 9.0 8.4 7.6 91 0.7 CALM 0 0 0 0 1023.2 1023.3 0.0
28/07:00am 9.5 7.9 8.1 91 0.7 ESE 6 7 3 4 1023.1 1023.2 0.0
28/06:30am 9.6 7.6 8.8 95 0.4 ENE 9 11 5 6 1023.0 1023.1 0.0
28/06:00am 7.7 7.1 7.3 97 0.2 CALM 0 0 0 0 1022.7 1022.8 0.0
28/05:30am 7.6 7.0 7.3 98 0.1 CALM 0 0 0 0 1022.8 1022.9 0.0
28/05:00am 7.2 6.5 6.9 98 0.1 CALM 0 0 0 0 1022.6 1022.7 0.0
28/04:30am 6.6 5.8 6.3 98 0.1 CALM 0 0 0 0 1022.6 1022.7 0.0
28/04:00am 5.2 4.0 4.6 96 0.3 CALM 0 0 0 0 1022.3 1022.4 0.0
28/03:30am 5.1 3.9 4.4 95 0.3 CALM 0 0 0 0 1022.5 1022.6 0.0
28/03:00am 6.4 5.4 5.8 96 0.3 CALM 0 0 0 0 1022.5 1022.6 0.0
28/02:30am 5.8 4.6 4.6 92 0.5 CALM 0 0 0 0 1022.7 1022.8 0.0
28/02:00am 7.0 4.9 5.9 93 0.5 E 6 7 3 4 1022.9 1023.0 0.0
28/01:30am 7.1 6.1 5.4 89 0.8 CALM 0 7 0 4 1022.8 1022.9 0.0
28/01:00am 10.1 8.1 8.5 90 0.8 ENE 9 13 5 7 1023.0 1023.1 0.0
28/12:30am 7.3 6.1 6.4 94 0.4 E 2 6 1 3 1023.2 1023.3 0.0
28/12:00am 7.3 6.5 6.4 94 0.4 CALM 0 0 0 0 1023.4 1023.5 0.0
 
Date/Time
EST
Temp
°C
App
Temp
°C
Dew
Point
Rel
Hum
%
Delta-T
°C
Wind Press
QNH
hPa
Press
MSL
hPa
Rain
since 9 am
mm
Dir
 
Spd
km/h
Gust
km/h
Spd
kts
Gust
kts
27/11:30pm 6.9 5.9 5.8 93 0.5 CALM 0 0 0 0 1023.5 1023.6 0.0
27/11:00pm 6.6 5.6 5.7 94 0.4 CALM 0 0 0 0 1023.6 1023.7 0.0
27/10:30pm 6.2 5.1 5.0 92 0.5 CALM 0 0 0 0 1023.6 1023.7 0.0
27/10:00pm 7.4 6.2 6.3 93 0.5 S 2 6 1 3 1023.6 1023.7 0.0
27/09:30pm 8.0 6.3 6.1 88 0.9 S 4 6 2 3 1023.6 1023.7 0.0
27/09:00pm 10.6 9.7 7.7 82 1.4 ENE 2 6 1 3 1023.6 1023.7 0.0
27/08:30pm 11.6 9.8 8.1 79 1.7 ENE 7 7 4 4 1023.5 1023.6 0.0
27/08:00pm 11.0 8.0 7.7 80 1.6 N 13 13 7 7 1023.5 1023.6 0.0
27/07:30pm 12.4 9.9 8.1 75 2.1 N 11 13 6 7 1023.6 1023.7 0.0
27/07:00pm 13.0 10.1 8.3 73 2.4 N 13 17 7 9 1023.4 1023.5 0.0
27/06:30pm 13.4 11.2 7.8 69 2.8 N 9 11 5 6 1023.1 1023.2 0.0
27/06:00pm 13.4 11.2 7.8 69 2.8 N 9 9 5 5 1022.9 1023.0 0.0
27/05:30pm 14.2 12.0 7.9 66 3.2 N 9 13 5 7 1022.7 1022.8 0.0
27/05:00pm 15.4 12.5 8.2 62 3.7 N 13 17 7 9 1022.5 1022.6 0.0
27/04:30pm 16.4 13.6 8.4 59 4.1 N 13 15 7 8 1022.3 1022.4 0.0
27/04:00pm 17.6 14.9 9.0 57 4.5 N 13 19 7 10 1022.4 1022.5 0.0
27/03:30pm 18.0 14.0 8.3 53 5.0 N 19 24 10 13 1022.5 1022.6 0.0
27/03:00pm 18.6 15.7 8.0 50 5.5 NNW 13 17 7 9 1022.5 1022.6 0.0
27/02:30pm 18.3 15.1 8.6 53 5.1 NNW 15 20 8 11 1022.7 1022.8 0.0
27/02:00pm 17.2 15.2 8.6 57 4.5 N 9 17 5 9 1022.9 1023.0 0.0
27/01:30pm 16.5 13.2 9.7 64 3.6 NNW 17 24 9 13 1023.3 1023.4 0.0
27/01:00pm 16.3 13.9 8.5 60 4.0 NNW 11 20 6 11 1023.7 1023.8 0.0
27/12:30pm 15.0 12.2 8.7 66 3.2 N 13 17 7 9 1024.0 1024.1 0.0
27/12:00pm 14.3 11.5 8.5 68 2.9 N 13 17 7 9 1024.6 1024.7 0.0
27/11:30am 14.5 11.3 8.5 67 3.1 N 15 17 8 9 1025.1 1025.2 0.0
27/11:00am 14.2 10.6 8.4 68 2.9 NNE 17 20 9 11 1025.5 1025.7 0.0
27/10:30am 13.8 11.0 8.4 70 2.7 NNE 13 17 7 9 1025.7 1025.9 0.0
27/10:00am 13.7 10.9 8.5 71 2.6 NE 13 15 7 8 1025.7 1025.9 0.0
27/09:30am 11.2 9.0 7.9 80 1.6 NE 9 11 5 6 1025.8 1026.0 0.0
27/09:00am 9.5 7.7 7.8 89 0.8 NE 7 9 4 5 1025.8 1026.0 0.0
27/08:30am 8.0 7.5 7.7 98 0.1 CALM 0 0 0 0 1025.8 1026.0 0.0
27/08:00am 7.3 6.3 7.2 99 0.0 E 2 6 1 3 1025.5 1025.7 0.0
27/07:30am 5.4 3.2 5.3 99 0.0 NE 6 7 3 4 1025.4 1025.6 0.0
27/07:00am 4.7 2.7 4.4 98 0.1 SSW 4 7 2 4 1025.1 1025.2 0.0
27/06:30am 3.4 0.8 3.0 97 0.2 S 6 7 3 4 1024.9 1025.0 0.0
27/06:00am 3.8 2.4 3.4 97 0.2 CALM 0 0 0 0 1024.5 1024.6 0.0
27/05:30am 3.3 1.7 2.7 96 0.2 CALM 0 2 0 1 1024.5 1024.6 0.0
27/05:00am 4.0 1.4 3.4 96 0.2 SE 6 7 3 4 1024.1 1024.2 0.0
27/04:30am 5.2 3.2 4.6 96 0.3 NE 4 7 2 4 1024.3 1024.4 0.0
27/04:00am 5.0 3.0 4.3 95 0.3 E 4 7 2 4 1024.3 1024.4 0.0
27/03:30am 6.0 3.8 5.1 94 0.4 ENE 6 11 3 6 1024.5 1024.6 0.0
27/03:00am 5.4 3.5 4.8 96 0.3 SSE 4 7 2 4 1024.7 1024.8 0.0
27/02:30am 5.3 4.1 4.7 96 0.3 CALM 0 0 0 0 1025.2 1025.4 0.0
27/02:00am 5.3 4.2 4.9 97 0.2 CALM 0 0 0 0 1025.2 1025.4 0.0
27/01:30am 4.9 3.6 4.2 95 0.3 CALM 0 6 0 3 1025.4 1025.6 0.0
27/01:00am 5.4 4.2 4.8 96 0.3 CALM 0 0 0 0 1025.6 1025.8 0.0
27/12:30am 5.1 3.9 4.7 97 0.2 CALM 0 0 0 0 1026.1 1026.2 0.0
27/12:00am 4.4 1.9 3.7 95 0.3 S 6 7 3 4 1026.3 1026.4 0.0
 
Date/Time
EST
Temp
°C
App
Temp
°C
Dew
Point
Rel
Hum
%
Delta-T
°C
Wind Press
QNH
hPa
Press
MSL
hPa
Rain
since 9 am
mm
Dir
 
Spd
km/h
Gust
km/h
Spd
kts
Gust
kts
26/11:30pm 5.2 3.2 4.5 95 0.3 ESE 4 6 2 3 1026.5 1026.6 0.0
26/11:00pm 6.1 4.7 5.5 96 0.3 ESE 2 6 1 3 1026.6 1026.7 0.0
26/10:30pm 5.4 4.2 4.7 95 0.3 CALM 0 0 0 0 1026.5 1026.6 0.0
26/10:00pm 5.2 3.9 4.3 94 0.4 CALM 0 0 0 0 1026.4 1026.5 0.0
26/09:30pm 5.2 3.9 4.2 93 0.4 CALM 0 0 0 0 1026.5 1026.6 0.0
26/09:00pm 6.2 5.0 4.8 91 0.6 CALM 0 0 0 0 1026.2 1026.3 0.0
26/08:30pm 6.5 5.4 5.0 90 0.7 CALM 0 0 0 0 1026.6 1026.7 0.0
26/08:00pm 7.6 6.7 6.1 90 0.7 CALM 0 0 0 0 1026.7 1026.8 0.0
26/07:30pm 7.8 6.8 5.8 87 0.9 CALM 0 0 0 0 1026.9 1027.0 0.0
26/07:00pm 7.9 6.9 5.4 84 1.1 CALM 0 0 0 0 1027.0 1027.1 0.0
26/06:30pm 9.0 6.9 5.6 79 1.6 ENE 6 7 3 4 1026.8 1026.9 0.0
26/06:00pm 10.8 10.0 6.6 75 2.0 CALM 0 2 0 1 1026.9 1027.0 0.0
26/05:30pm 10.5 8.2 5.9 73 2.2 N 7 9 4 5 1026.9 1027.0 0.0
26/05:00pm 12.2 9.7 6.5 68 2.7 WNW 9 11 5 6 1026.8 1026.9 0.0
26/04:30pm 13.0 10.5 6.4 64 3.2 NNE 9 11 5 6 1026.3 1026.4 0.0
26/04:00pm 13.7 11.1 6.1 60 3.7 N 9 11 5 6 1026.7 1026.8 0.0
26/03:30pm 14.0 11.6 5.1 55 4.2 SE 7 11 4 6 1026.1 1026.2 0.0
26/03:00pm 14.2 12.2 6.1 58 3.9 S 6 13 3 7 1026.4 1026.5 0.0
26/02:30pm 14.6 13.6 5.7 55 4.3 CALM 0 2 0 1 1026.9 1027.0 0.0
26/02:00pm 14.4 12.9 5.2 54 4.4 NE 2 6 1 3 1027.0 1027.1 0.0
26/01:30pm 14.7 13.7 5.5 54 4.4 CALM 0 4 0 2 1027.5 1027.6 0.0
26/01:00pm 14.8 12.6 5.3 53 4.5 SSE 6 11 3 6 1027.9 1028.0 0.0
26/12:30pm 14.5 13.2 6.1 57 4.1 ESE 2 7 1 4 1028.3 1028.5 0.0
26/12:00pm 14.3 13.1 6.6 60 3.8 ENE 2 6 1 3 1029.0 1029.2 0.0
26/11:30am 14.0 11.8 6.4 60 3.7 NE 7 11 4 6 1029.6 1029.8 0.0
26/11:00am 13.0 11.9 6.8 66 3.0 E 2 7 1 4 1030.2 1030.3 0.0
26/10:30am 11.3 9.3 7.2 76 2.0 NE 7 9 4 5 1030.5 1030.6 0.0
26/10:00am 9.1 7.5 6.5 84 1.2 NNE 4 7 2 4 1030.5 1030.6 0.0
26/09:30am 7.9 7.3 7.5 97 0.2 CALM 0 6 0 3 1030.6 1030.7 0.0
26/09:00am 5.4 4.3 5.3 99 0.0 CALM 0 0 0 0 1030.3 1030.4 0.0
26/08:30am 3.4 0.6 3.3 99 0.0 S 7 9 4 5 1030.3 1030.4 0.0
26/08:00am 0.7 -2.4 0.4 98 0.1 S 6 7 3 4 1030.4 1030.5 0.0
26/07:30am -0.4 -2.5 -0.7 98 0.1 CALM 0 0 0 0 1030.1 1030.2 0.0
26/07:00am -0.5 -3.4 -0.8 98 0.1 SSW 4 6 2 3 1029.7 1029.9 0.0
26/06:30am -1.3 -4.3 -1.7 97 0.1 S 4 7 2 4 1029.6 1029.8 0.0
26/06:00am -0.6 -3.1 -1.0 97 0.1 S 2 7 1 4 1029.4 1029.6 0.0
26/05:30am -0.3 -2.4 -0.7 97 0.1 CALM 0 0 0 0 1029.5 1029.7 0.0
26/05:00am -0.2 -2.3 -0.6 97 0.1 CALM 0 0 0 0 1029.3 1029.5 0.0
26/04:30am 0.6 -2.1 0.3 98 0.1 SSE 4 7 2 4 1029.3 1029.5 0.0
26/04:00am 0.3 -1.7 -0.1 97 0.1 CALM 0 0 0 0 1029.4 1029.6 0.0
26/03:30am 0.5 -1.5 0.1 97 0.1 CALM 0 4 0 2 1029.0 1029.2 0.0
26/03:00am -0.3 -3.7 -0.9 96 0.2 S 7 7 4 4 1029.2 1029.4 0.0
26/02:30am 0.9 -2.1 0.5 97 0.1 S 6 7 3 4 1030.0 1030.1 0.0
26/02:00am 1.5 -2.0 1.2 98 0.1 S 9 11 5 6 1030.2 1030.3 0.0
26/01:30am 0.6 -3.1 0.2 97 0.1 S 9 11 5 6 1030.3 1030.4 0.0
26/01:00am 0.3 -2.9 -0.3 96 0.2 S 6 7 3 4 1030.2 1030.3 0.0
26/12:30am 1.2 -2.8 0.8 97 0.2 S 11 11 6 6 1030.2 1030.3 0.0
26/12:00am 1.2 -1.8 0.6 96 0.2 S 6 9 3 5 1030.5 1030.6 0.0
 
Date/Time
EST
Temp
°C
App
Temp
°C
Dew
Point
Rel
Hum
%
Delta-T
°C
Wind Press
QNH
hPa
Press
MSL
hPa
Rain
since 9 am
mm
Dir
 
Spd
km/h
Gust
km/h
Spd
kts
Gust
kts
25/11:30pm 0.7 -1.6 0.1 96 0.2 S 2 6 1 3 1030.6 1030.7 0.0
25/11:00pm 1.8 -0.3 1.4 97 0.2 S 2 9 1 5 1030.6 1030.7 0.0
25/10:30pm 2.1 0.3 1.5 96 0.2 CALM 0 0 0 0 1030.7 1030.8 0.0
25/10:00pm 2.2 0.4 1.5 95 0.3 CALM 0 0 0 0 1030.8 1030.9 0.0
25/09:30pm 3.3 0.0 2.7 96 0.2 S 9 11 5 6 1030.8 1030.9 0.0
25/09:00pm 2.6 -0.4 1.7 94 0.4 SSW 7 7 4 4 1030.8 1030.9 0.0
25/08:30pm 3.2 0.4 1.9 91 0.5 S 6 7 3 4 1030.5 1030.6 0.0
25/08:00pm 4.7 3.2 3.2 90 0.6 CALM 0 7 0 4 1030.4 1030.5 0.0
25/07:30pm 6.0 4.6 3.8 86 0.9 CALM 0 0 0 0 1030.7 1030.8 0.0
25/07:00pm 7.2 6.1 4.9 85 1.0 CALM 0 0 0 0 1030.5 1030.6 0.0
25/06:30pm 7.0 5.4 4.3 83 1.2 SW 2 7 1 4 1030.2 1030.3 0.0
25/06:00pm 9.4 8.3 5.0 74 2.0 CALM 0 0 0 0 1029.6 1029.8 0.0
25/05:30pm 10.3 7.8 4.5 67 2.6 E 7 9 4 5 1029.4 1029.6 0.0
25/05:00pm 12.5 10.2 4.7 59 3.6 ESE 6 7 3 4 1029.4 1029.6 0.0
25/04:30pm 15.2 13.5 4.0 47 5.2 E 2 7 1 4 1029.3 1029.5 0.0
25/04:00pm 15.9 14.1 3.7 44 5.7 S 2 6 1 3 1029.3 1029.5 0.0
25/03:30pm 16.0 13.9 4.1 45 5.6 S 4 7 2 4 1029.9 1030.0 0.0
25/03:00pm 17.2 15.2 4.5 43 6.1 S 4 9 2 5 1030.0 1030.1 0.0
25/02:30pm 16.5 14.1 4.5 45 5.7 SSE 6 11 3 6 1030.2 1030.3 0.0
25/02:00pm 16.2 13.3 4.9 47 5.4 SSW 9 13 5 7 1030.3 1030.4 0.0
25/01:30pm 15.8 12.7 5.4 50 5.0 SSW 11 13 6 7 1030.7 1030.8 0.0
25/01:00pm 15.6 13.7 6.6 55 4.4 S 6 11 3 6 1031.0 1031.1 0.0
25/12:30pm 15.2 14.1 6.7 57 4.2 WNW 2 6 1 3 1031.4 1031.6 0.0

Other Formats:

Comma delimited format used in spreadsheet applications
http://www.bom.gov.au/fwo/IDN60801/IDN60801.95722.axf

JavaScript Object Notation format (JSON) in row-major order
http://www.bom.gov.au/fwo/IDN60801/IDN60801.95722.json